Tiempo atmosférico en la estación meteorológica de Tenerife Sur Aeropuerto, Santa Cruz de Tenerife (64 m.)



Fecha
DESCASC
Temp. máxima en grados centígrados (hora)
DESCASC
Temp. mínima en grados centígrados (hora)
DESCASC
Temp. media en grados centígrados
DESCASC
Racha de viento máxima en m/sg (hora)
DESCASC
Velocidad máxima media en intervalos de 10 minutos(hora)
DESCASC
Precipitaciones diarias en mm
DESCASC
Precipitaciones de 00:00 a 06:00 en mm
DESCASC
Precipitaciones de 06:00 a 12:00 en mm
DESCASC
Precipitaciones de 12:00 a 18:00 en mm
DESCASC
Precipitaciones de 18:00 a 24:00 en mm
DESCASC
14-12-2019 22.3 (13:00) 17 (05:40) 19.6 10.28 (11:00) 7.78 (10:50) 0 0 0 0 0
13-12-2019 22 (15:00) 16.2 (07:10) 19.1 18.06 (02:30) 12.78 (02:10) 0 0 0 0 0
12-12-2019 23.2 (14:10) 17.6 (04:30) 20.4 22.78 (11:00) 16.39 (10:20) 0 0 0 0 0
11-12-2019 23.4 (13:20) 17.9 (00:00) 20.6 16.94 (11:10) 13.06 (15:40) 0 0 0 0 0
10-12-2019 23.3 (13:20) 14.9 (05:30) 19.1 14.44 (10:40) 11.11 (11:10) 0 0 0 0 0
09-12-2019 23.6 (13:30) 16.6 (23:30) 20.1 16.11 (10:50) 12.5 (11:10) 0 0 0 0 0
08-12-2019 22.8 (14:00) 16.6 (00:00) 19.7 19.72 (13:30) 13.61 (14:30) 0 0 0 0 0
07-12-2019 23.8 (14:00) 16.1 (00:00) 19.9 18.61 (13:00) 13.61 (13:00) 0 0 0 0 0
06-12-2019 24.1 (16:10) 15.2 (00:00) 19.7 13.89 (12:00) 9.17 (11:50) 0 0 0 0 0
05-12-2019 22.7 (12:50) 15.9 (00:00) 19.3 8.33 (01:50) 6.11 (01:40) 0 0 0 0 0
04-12-2019 23 (12:40) 15.6 (02:30) 19.3 8.33 (09:00) 4.72 (11:50) 0 0 0 0 0
03-12-2019 -- (--) -- (--) -- -- (--) -- (--) -- 0 -- 0 0
02-12-2019 24.3 (12:50) 15.9 (00:00) 20.1 8.89 (12:50) 6.39 (12:50) 0 0 0 0 0
01-12-2019 24.5 (12:30) 17.6 (00:00) 21.1 15 (03:20) 11.39 (08:20) 0 0 0 0 0
30-11-2019 28.8 (13:20) 19.4 (00:00) 24.1 13.33 (22:40) 10.56 (23:30) 0 0 0 0 0
29-11-2019 30.5 (12:50) 19.6 (00:00) 25.1 14.44 (00:40) 10.83 (00:50) 0 0 0 0 0
28-11-2019 24.8 (13:50) 17.1 (06:50) 20.9 15 (21:30) 11.67 (21:30) 0 0 0 0 0
27-11-2019 23.9 (11:20) 17.3 (00:00) 20.6 13.89 (10:50) 8.89 (14:00) 0 0 0 0 0
26-11-2019 24.6 (14:20) 17.7 (00:00) 21.2 12.5 (16:40) 9.17 (16:40) 0 0 0 0 0
25-11-2019 23.7 (12:40) 17.5 (06:00) 20.6 11.39 (01:20) 8.33 (01:20) 0 0 0 0 0
24-11-2019 24.8 (12:30) 17.3 (00:00) 21 13.33 (16:50) 10 (16:50) 0 0 0 0 0
23-11-2019 24.6 (15:40) 16.6 (00:00) 20.6 8.89 (23:10) 4.44 (20:50) 0.2 0 0 0 0.2
22-11-2019 24.7 (11:40) 15.9 (00:00) 20.3 8.33 (07:10) 4.17 (08:20) 0 0 0 0 0
21-11-2019 24.2 (11:10) 17 (00:00) 20.6 11.67 (13:20) 7.5 (12:40) 0 0 0 0 0
20-11-2019 25.5 (15:20) 15.4 (05:10) 20.4 12.78 (15:40) 9.17 (15:30) 0 0 0 0 0
19-11-2019 24.7 (12:40) 14.9 (00:00) 19.8 8.89 (06:40) 4.72 (16:00) 0 0 0 0 0
18-11-2019 23.6 (13:50) 17.3 (00:00) 20.4 16.11 (11:00) 11.94 (11:00) 0 0 0 0 0
17-11-2019 23.2 (13:00) 17.3 (00:00) 20.3 16.94 (13:20) 11.39 (12:40) 0 0 0 0 0
16-11-2019 24.2 (13:00) 16.5 (00:00) 20.4 20 (11:40) 14.17 (15:40) 0 0 0 0 0
15-11-2019 23.6 (11:20) 17.4 (00:00) 20.5 18.06 (15:50) 12.78 (13:30) 0 0 0 0 0

Gráficas

Temp. máximas Temp. mínimas Temp. medias Precipitaciones Rachas de viento máximas Velocidades máximas media en intervalos de 10 minutos

Datos horarios

Fecha y hora oficial Temperatura (ºC) Velocidad del viento (km/h) Dirección del viento Racha (km/h) Dirección de racha Precipitación (mm) Presión (hPa) Tendencia (hPa) Humedad (%)
2019-12-14 23:00:00 18.7 13 Nordeste 28 Este 0 1011.7 0.2 67
2019-12-14 22:00:00 19.1 9 Nordeste 22 Este 0 1011.4 -0.2 69
2019-12-14 21:00:00 18.6 6 Este 26 Norte 0 1011.6 -0.3 67
2019-12-14 20:00:00 19.5 5 Nordeste 13 Norte 0 1011.5 0 65
2019-12-14 19:00:00 19.6 4 Sudoeste 13 Sudoeste 0 1011.6 0.3 65
2019-12-14 18:00:00 19.8 12 Sudoeste 21 Sudoeste 0 1011.9 0.6 66
2019-12-14 17:00:00 20.2 9 Sudoeste 24 Sudoeste 0 1011.5 -0.2 66
2019-12-14 16:00:00 21.2 19 Este 30 Este 0 1011.3 -1.2 63
2019-12-14 15:00:00 20.9 19 Este 33 Este 0 1011.3 -2.1 65
2019-12-14 14:00:00 21.5 23 Este 32 Este 0 1011.7 -2 61
2019-12-14 13:00:00 22.2 22 Este 32 Este 0 1012.5 -1.1 56
2019-12-14 12:00:00 21.1 22 Este 35 Este 0 1013.4 -0.2 65
2019-12-14 11:00:00 20.7 28 Este 37 Este 0 1013.7 0 73
2019-12-14 10:00:00 20.7 18 Este 28 Este 0 1013.6 0.4 61
2019-12-14 09:00:00 18.7 11 Nordeste 17 Nordeste 0 1013.6 0 67
2019-12-14 08:00:00 17.6 9 Norte 11 Norte 0 1013.7 0.3 64
2019-12-14 07:00:00 17.5 8 Norte 17 Norte 0 1013.2 -0.2 66
2019-12-14 06:00:00 17.2 12 Norte 17 Norte 0 1013.6 -0.1 80
2019-12-14 05:00:00 17.5 11 Nordeste 32 Nordeste 0 1013.4 -0.6 79
2019-12-14 04:00:00 18.3 13 Norte 24 Norte 0 1013.4 -1.1 59
2019-12-14 03:00:00 18 13 Norte 26 Nordeste 0 1013.7 -1.2 59
2019-12-14 02:00:00 18.3 14 Norte 22 Norte 0 1014 -1.2 61
2019-12-14 01:00:00 17.2 12 Norte 22 Norte 0 1014.5 -0.8 65
2019-12-14 00:00:00 18.1 17 Nordeste 30 Nordeste 0 1014.9 -0.4 66
2019-12-13 23:00:00 18.4 19 Nordeste 30 Nordeste 0 1015.2 0.4 65
2019-12-13 22:00:00 18.4 13 Nordeste 30 Nordeste 0 1015.3 0.7 59
2019-12-13 21:00:00 17.9 17 Nordeste 30 Nordeste 0 1015.3 0.6 61
2019-12-13 20:00:00 18 22 Nordeste 35 Nordeste 0 1014.8 0.3 60
2019-12-13 19:00:00 18.5 22 Nordeste 45 Nordeste 0 1014.6 0.4 56
2019-12-13 18:00:00 19.2 31 Nordeste 48 Este 0 1014.7 0.4 57
2019-12-13 17:00:00 20.5 37 Nordeste 52 Nordeste 0 1014.5 -0.7 57
2019-12-13 16:00:00 21.4 40 Nordeste 61 Nordeste 0 1014.2 -2.4 51
2019-12-13 15:00:00 21.8 38 Este 58 Nordeste 0 1014.3 -3.4 49
2019-12-13 14:00:00 21.5 44 Este 59 Este 0 1015.2 -3.1 51
2019-12-13 13:00:00 21.3 40 Nordeste 58 Este 0 1016.6 -1.8 49
2019-12-13 12:00:00 20.8 41 Este 59 Nordeste 0 1017.7 -0.2 50
2019-12-13 11:00:00 19.9 37 Nordeste 55 Nordeste 0 1018.3 0.7 53
2019-12-13 10:00:00 19.4 37 Nordeste 50 Nordeste 0 1018.4 1.1 53
2019-12-13 09:00:00 17.9 30 Nordeste 42 Nordeste 0 1017.9 1.2 57
2019-12-13 08:00:00 16.5 31 Nordeste 45 Nordeste 0 1017.6 0.7 63
2019-12-13 07:00:00 16.4 22 Nordeste 58 Nordeste 0 1017.3 0.2 62
2019-12-13 06:00:00 16.6 30 Nordeste 48 Nordeste 0 1016.7 -0.6 60
2019-12-13 05:00:00 16.8 23 Nordeste 55 Nordeste 0 1016.9 -0.5 64
2019-12-13 04:00:00 17.3 32 Nordeste 50 Nordeste 0 1017.1 -0.7 60
2019-12-13 03:00:00 17.4 39 Nordeste 65 Nordeste 0 1017.3 -0.9 57
2019-12-13 02:00:00 17.7 42 Nordeste 61 Nordeste 0 1017.4 -1.2 55
2019-12-13 01:00:00 17.7 41 Nordeste 61 Nordeste 0 1017.8 -0.6 56
2019-12-13 00:00:00 17.6 42 Nordeste 61 Nordeste 0 1018.2 0.2 56
2019-12-12 23:00:00 17.9 37 Nordeste 58 Nordeste 0 1018.6 1.2 56
2019-12-12 22:00:00 18 38 Nordeste 61 Nordeste 0 1018.4 1.5 57
2019-12-12 21:00:00 17.8 41 Nordeste 68 Nordeste 0 1018 1.3 66
2019-12-12 20:00:00 18.3 35 Nordeste 55 Nordeste 0 1017.4 1 65
2019-12-12 19:00:00 18.9 40 Nordeste 63 Nordeste 0 1016.9 0.4 67
2019-12-12 18:00:00 19.6 41 Nordeste 65 Nordeste 0 1016.7 0 69
2019-12-12 17:00:00 21.1 40 Nordeste 58 Nordeste 0 1016.4 -0.5 62
2019-12-12 16:00:00 21.9 44 Nordeste 67 Nordeste 0 1016.5 -0.7 63
2019-12-12 15:00:00 21.5 45 Nordeste 63 Este 0 1016.7 -1.2 67
2019-12-12 14:00:00 22.5 42 Nordeste 72 Nordeste 0 1016.9 -1 59
2019-12-12 13:00:00 22.9 51 Este 74 Este 0 1017.2 -0.3 59
2019-12-12 12:00:00 22.3 51 Este 80 Nordeste 0 1017.9 0.3 61
2019-12-12 11:00:00 22 57 Nordeste 82 Nordeste 0 1017.9 1.5 57
2019-12-12 10:00:00 21 57 Este 72 Este 0 1017.5 1.8 59
2019-12-12 09:00:00 19.7 44 Nordeste 65 Nordeste 0 1017.6 1.6 59
2019-12-12 08:00:00 18.3 48 Nordeste 68 Este 0 1016.4 0.6 64
2019-12-12 07:00:00 18 46 Nordeste 63 Nordeste 0 1015.7 -0.7 64
2019-12-12 06:00:00 17.9 46 Nordeste 63 Nordeste 0 1016 -0.4 65
2019-12-12 05:00:00 17.7 37 Nordeste 58 Este 0 1015.8 -0.8 67
2019-12-12 04:00:00 17.8 30 Nordeste 52 Este 0 1016.4 -0.9 64
2019-12-12 03:00:00 18.1 38 Nordeste 58 Nordeste 0 1016.4 -0.9 63
2019-12-12 02:00:00 18.3 41 Nordeste 65 Nordeste 0 1016.6 -0.6 63
2019-12-12 01:00:00 18.1 34 Nordeste 61 Nordeste 0 1017.3 -0.2 65
2019-12-12 00:00:00 18.1 41 Nordeste 58 Este 0 1017.3 -0.1 66
2019-12-11 23:00:00 18.2 43 Nordeste 59 Nordeste 0 1017.2 -0.1 64
2019-12-11 22:00:00 18.1 32 Nordeste 52 Nordeste 0 1017.5 0.7 64
2019-12-11 21:00:00 18 28 Nordeste 46 Nordeste 0 1017.4 0.7 64
2019-12-11 20:00:00 18.4 36 Nordeste 52 Nordeste 0 1017.3 1.2 64
2019-12-11 19:00:00 18.7 30 Nordeste 46 Nordeste 0 1016.8 0.9 67
2019-12-11 18:00:00 19.9 30 Nordeste 52 Nordeste 0 1016.7 0.8 65
2019-12-11 17:00:00 20.9 40 Nordeste 58 Nordeste 0 1016.1 -0.2 63
2019-12-11 16:00:00 21.9 44 Nordeste 61 Nordeste 0 1015.9 -1 60
2019-12-11 15:00:00 22.5 44 Nordeste 59 Nordeste 0 1015.9 -1.9 57
2019-12-11 14:00:00 22.9 42 Nordeste 61 Este 0 1016.3 -2 57
2019-12-11 13:00:00 23 42 Nordeste 59 Este 0 1016.9 -1.1 57
2019-12-11 12:00:00 22.8 45 Nordeste 61 Este 0 1017.8 0.4 60
2019-12-11 11:00:00 22.2 42 Este 59 Nordeste 0 1018.3 1.2 64
2019-12-11 10:00:00 22.1 34 Este 55 Nordeste 0 1018 1.9 58
2019-12-11 09:00:00 20.4 41 Nordeste 55 Nordeste 0 1017.4 1.2 61
2019-12-11 08:00:00 19 30 Nordeste 58 Nordeste 0 1017.1 1 64
2019-12-11 07:00:00 19.1 37 Nordeste 54 Este 0 1016.1 0 70
2019-12-11 06:00:00 19.2 22 Nordeste 42 Nordeste 0 1016.2 0.1 66
2019-12-11 05:00:00 19 28 Nordeste 45 Nordeste 0 1016.1 -0.3 69
2019-12-11 04:00:00 19 28 Nordeste 46 Nordeste 0 1016.1 -0.6 70
2019-12-11 03:00:00 19.1 27 Nordeste 45 Nordeste 0 1016.1 -1.2 69
2019-12-11 02:00:00 19.1 24 Nordeste 50 Nordeste 0 1016.4 -1 70
2019-12-11 01:00:00 19.3 27 Nordeste 50 Nordeste 0 1016.7 0 69
2019-12-11 00:00:00 19.3 27 Nordeste 46 Nordeste 0 1017.3 1 70
2019-12-10 23:00:00 19.4 26 Nordeste 46 Nordeste 0 1017.4 1.4 71
2019-12-10 22:00:00 19.1 30 Nordeste 45 Nordeste 0 1016.7 1.1 75
2019-12-10 21:00:00 19.1 30 Nordeste 50 Nordeste 0 1016.3 1 72
2019-12-10 20:00:00 19.3 31 Nordeste 46 Nordeste 0 1016 0.6 72
2019-12-10 19:00:00 19.5 24 Nordeste 37 Nordeste 0 1015.6 0.3 73
2019-12-10 18:00:00 20.4 24 Nordeste 45 Nordeste 0 1015.3 -0.2 68
2019-12-10 17:00:00 21.6 29 Nordeste -- -- -- 1015.4 -0.8 64
2019-12-10 16:00:00 22.5 35 Este 50 Este 0 1015.3 -1.9 60
2019-12-10 15:00:00 22.7 38 Este 52 Este 0 1015.5 -2.3 57
2019-12-10 14:00:00 22.9 35 Este 46 Este 0 1016.2 -1.8 56
2019-12-10 13:00:00 22.8 32 Este 48 Nordeste 0 1017.2 -0.7 55
2019-12-10 12:00:00 22.6 36 Este 50 Nordeste 0 1017.8 0.2 53
2019-12-10 11:00:00 21.9 38 Este 52 Este 0 1018 0.9 55
2019-12-10 10:00:00 20.7 38 Nordeste 50 Nordeste 0 1017.9 0.6 56
2019-12-10 09:00:00 19 28 Nordeste 41 Nordeste 0 1017.6 0.8 61
2019-12-10 08:00:00 16.2 18 Norte 28 Nordeste 0 1017.1 0.2 70
2019-12-10 07:00:00 15.5 11 Norte 21 Norte 0 1017.3 0.3 70
2019-12-10 06:00:00 15.2 10 Norte 17 Norte 0 1016.8 -0.5 65
2019-12-10 05:00:00 15.6 12 Norte 18 Norte 0 1016.9 -0.8 61
2019-12-10 04:00:00 15.6 12 Norte 26 Nordeste 0 1017 -0.9 65
2019-12-10 03:00:00 16.3 14 Nordeste 24 Nordeste 0 1017.3 -1.2 67
2019-12-10 02:00:00 16.6 10 Norte 26 Norte 0 1017.7 -0.9 68
2019-12-10 01:00:00 16.9 18 Nordeste 30 Nordeste 0 1017.9 -0.7 68
2019-12-10 00:00:00 16.9 14 Nordeste 24 Norte 0 1018.5 0.3 68
2019-12-09 23:00:00 17 15 Norte 26 Nordeste 0 1018.6 0.8 65
2019-12-09 22:00:00 17.6 18 Nordeste 30 Nordeste 0 1018.6 1.3 65
2019-12-09 21:00:00 17.9 18 Nordeste 30 Nordeste 0 1018.2 1.3 65
2019-12-09 20:00:00 18.3 17 Nordeste 30 Nordeste 0 1017.8 1.1 67
2019-12-09 19:00:00 18.9 22 Nordeste 37 Nordeste 0 1017.3 0.7 68
2019-12-09 18:00:00 19.8 28 Nordeste 46 Este 0 1016.9 0.4 66
2019-12-09 17:00:00 21.1 34 Nordeste 48 Este 0 1016.7 -0.3 61
2019-12-09 16:00:00 22.2 35 Nordeste 52 Nordeste 0 1016.6 -1.2 57
2019-12-09 15:00:00 22.7 40 Este 54 Nordeste 0 1016.5 -2 54
2019-12-09 14:00:00 22.8 39 Este 55 Este 0 1017 -2.1 54
2019-12-09 13:00:00 23 44 Nordeste 58 Este 0 1017.8 -1 52
2019-12-09 12:00:00 22.5 39 Este 58 Nordeste 0 1018.5 0.3 53
2019-12-09 11:00:00 21.7 43 Nordeste 58 Nordeste 0 1019.1 1.2 55
2019-12-09 10:00:00 21 36 Nordeste 48 Nordeste 0 1018.8 1.3 55
2019-12-09 09:00:00 19.4 31 Nordeste 48 Nordeste 0 1018.2 1.2 60
2019-12-09 08:00:00 18 32 Nordeste 46 Nordeste 0 1017.9 0.8 67
2019-12-09 07:00:00 18.1 34 Este 50 Este 0 1017.5 0.6 66
2019-12-09 06:00:00 18.1 36 Nordeste 52 Nordeste 0 1017 -0.2 65
2019-12-09 05:00:00 18.4 32 Este 46 Nordeste 0 1017.1 -0.2 63
2019-12-09 04:00:00 18.8 30 Nordeste 50 Nordeste 0 1016.9 -0.9 56
2019-12-09 03:00:00 18.7 30 Nordeste 52 Nordeste 0 1017.2 -0.6 54
2019-12-09 02:00:00 18.6 36 Nordeste 50 Este 0 1017.3 -0.4 56
2019-12-09 01:00:00 18.5 33 Este 54 Este 0 1017.8 0.4 56
2019-12-09 00:00:00 18.6 37 Nordeste 58 Este 0 1017.8 0.7 64
2019-12-08 23:00:00 18.9 35 Este 54 Este 0 1017.7 1.1 67
2019-12-08 22:00:00 19 34 Nordeste 55 Este 0 1017.4 1.3 57
2019-12-08 21:00:00 19 40 Este 59 Nordeste 0 1017.1 1.4 59
2019-12-08 20:00:00 19 35 Nordeste 55 Este 0 1016.6 1.3 68
2019-12-08 19:00:00 19.3 39 Este 54 Este 0 1016.1 0.9 71
2019-12-08 18:00:00 19.7 39 Este 61 Este 0 1015.7 0.2 69
2019-12-08 17:00:00 20.9 44 Este 61 Este 0 1015.3 -0.5 64
2019-12-08 16:00:00 22.1 42 Este 65 Este 0 1015.2 -1.6 56
2019-12-08 15:00:00 22.4 45 Este 65 Este 0 1015.5 -1.8 58
2019-12-08 14:00:00 22.6 42 Este 71 Este 0 1015.8 -2.3 57
2019-12-08 13:00:00 21.9 44 Este 61 Este 0 1016.8 -1.1 58
2019-12-08 12:00:00 22.3 45 Este 63 Este 0 1017.3 0.3 54
2019-12-08 11:00:00 21.6 41 Este 54 Este 0 1018.1 1.5 57
2019-12-08 10:00:00 20.7 41 Nordeste 58 Este 0 1017.9 1.6 54
2019-12-08 09:00:00 19.3 36 Este 50 Este 0 1017 1.3 66
2019-12-08 08:00:00 17.6 24 Nordeste 33 Este 0 1016.6 1.1 62
2019-12-08 07:00:00 17.3 16 Nordeste 39 Nordeste 0 1016.3 0.5 63
2019-12-08 06:00:00 17.6 21 Nordeste 32 Nordeste 0 1015.7 -0.3 67
2019-12-08 05:00:00 18.1 26 Nordeste 39 Nordeste 0 1015.5 -0.8 71
2019-12-08 04:00:00 18.1 21 Nordeste 39 Este 0 1015.8 -0.8 69
2019-12-08 03:00:00 18.4 26 Nordeste 45 Nordeste 0 1016 -0.8 73
2019-12-08 02:00:00 18.7 27 Nordeste 42 Nordeste 0 1016.3 -0.4 71
2019-12-08 01:00:00 18.6 26 Nordeste 41 Nordeste 0 1016.6 0.1 68
2019-12-08 00:00:00 18.8 23 Nordeste 46 Nordeste 0 1016.8 0.7 68
2019-12-07 23:00:00 18.9 28 Nordeste 45 Nordeste 0 1016.7 1.3 71
2019-12-07 22:00:00 19 27 Nordeste 39 Nordeste 0 1016.5 1.9 71
2019-12-07 21:00:00 18.5 14 Nordeste 33 Nordeste 0 1016.1 1.9 62
2019-12-07 20:00:00 19.2 23 Nordeste 42 Este 0 1015.4 1.9 61
2019-12-07 19:00:00 19.5 34 Este 42 Este 0 1014.6 1.4 67
2019-12-07 18:00:00 20.1 29 Nordeste 58 Este 0 1014.2 0.9 66
2019-12-07 17:00:00 21.1 42 Este 58 Este 0 1013.5 0 62
2019-12-07 16:00:00 22.2 41 Este 55 Nordeste 0 1013.2 -0.6 58
2019-12-07 15:00:00 23.1 36 Nordeste 58 Nordeste 0 1013.3 -1 54
2019-12-07 14:00:00 23.5 40 Nordeste 59 Este 0 1013.5 -1.4 54
2019-12-07 13:00:00 22.6 49 Este 67 Este 0 1013.8 -0.9 58
2019-12-07 12:00:00 22.5 44 Este 61 Este 0 1014.3 0.2 59
2019-12-07 11:00:00 22.8 37 Este 50 Este 0 1014.9 1.4 59
2019-12-07 10:00:00 20.8 19 Nordeste 42 Este 0 1014.7 2 63
2019-12-07 09:00:00 19.5 6 Nordeste 17 Nordeste 0 1014.1 1.8 58
2019-12-07 08:00:00 17 17 Nordeste 28 Nordeste 0 1013.5 1.5 67
2019-12-07 07:00:00 17.8 13 Nordeste 30 Nordeste 0 1012.7 0.7 66
2019-12-07 06:00:00 17.9 23 Nordeste 37 Nordeste 0 1012.3 0.7 70
2019-12-07 05:00:00 18.2 20 Nordeste 30 Nordeste 0 1012 0.5 65
2019-12-07 04:00:00 17.7 13 Nordeste 24 Este 0 1012 0.7 63
2019-12-07 03:00:00 17.9 8 Este 18 Nordeste 0 1011.6 0 64
2019-12-07 02:00:00 18.1 12 Norte 22 Nordeste 0 1011.5 0.3 63
2019-12-07 01:00:00 18.9 6 Nordeste 24 Nordeste 0 1011.3 0.6 56
2019-12-07 00:00:00 17.7 10 Norte 28 Nordeste 0 1011.6 1.2 66
2019-12-06 23:00:00 18.5 21 Nordeste 35 Nordeste 0 1011.2 1.3 67
2019-12-06 22:00:00 18.6 19 Nordeste 32 Nordeste 0 1010.7 1.7 65
2019-12-06 21:00:00 18.9 6 Sur 24 Oeste 0 1010.4 1.8 66
2019-12-06 20:00:00 19.9 13 Noroeste 28 Noroeste 0 1009.9 1.6 64
2019-12-06 19:00:00 20.1 12 Oeste 18 Oeste 0 1009 1.1 64
2019-12-06 18:00:00 21.1 13 Sur 24 Sur 0 1008.6 0.9 60
2019-12-06 17:00:00 22.2 16 Sudoeste 37 Oeste 0 1008.3 0.2 56
2019-12-06 16:00:00 23.8 24 Oeste 33 Oeste 0 1007.9 -0.9 46
2019-12-06 15:00:00 23.4 11 Sudoeste 26 Oeste 0 1007.7 -1.7 47
2019-12-06 14:00:00 21.8 13 Sudoeste 26 Sudoeste 0 1008.1 -1.2 53
2019-12-06 13:00:00 21.5 13 Sur 41 Este 0 1008.8 -0.1 55
2019-12-06 12:00:00 23 33 Este 50 Nordeste 0 1009.4 1.1 47
2019-12-06 11:00:00 23 9 Norte 24 Oeste 0 1009.3 1.7 43
2019-12-06 10:00:00 21.5 9 Oeste 21 Oeste 0 1008.9 2.2 52
2019-12-06 09:00:00 19.3 8 Noroeste 22 Noroeste 0 1008.3 1.7 60
2019-12-06 08:00:00 16.5 15 Noroeste 32 Norte 0 1007.6 1.4 67
2019-12-06 07:00:00 16.4 16 Noroeste 26 Noroeste 0 1006.7 0.9 70
2019-12-06 06:00:00 15.4 7 Norte 15 Noroeste 0 1006.6 1.4 70
2019-12-06 05:00:00 16.1 7 Nordeste 18 Noroeste 0 1006.2 0.3 65
2019-12-06 04:00:00 17.1 14 Noroeste 22 Noroeste 0 1005.8 0.1 65
2019-12-06 03:00:00 17.6 18 Noroeste 24 Noroeste 0 1005.2 -1.3 62
2019-12-06 02:00:00 17.5 12 Sudeste 21 Nordeste 0 1005.9 -0.4 64
2019-12-06 01:00:00 17.6 8 Norte 18 Noroeste 0 1005.7 -0.8 61
2019-12-06 00:00:00 18.6 15 Noroeste 28 Norte 0 1006.5 0.6 58
2019-12-05 23:00:00 17.7 13 Noroeste 18 Este 0 1006.3 1.4 59
2019-12-05 22:00:00 18.2 12 Nordeste 18 Nordeste 0 1006.5 1.9 60
2019-12-05 21:00:00 17.9 4 Nordeste 9 Oeste 0 1005.9 1.7 59
2019-12-05 20:00:00 18.4 8 Oeste 18 Oeste 0 1004.9 0.9 60
2019-12-05 19:00:00 19.2 7 Oeste 18 Sur 0 1004.6 0.8 59
2019-12-05 18:00:00 20.1 12 Sur 26 Sudoeste 0 1004.2 0.5 56
2019-12-05 17:00:00 20.7 17 Sur 30 Oeste 0 1004 -0.1 59
2019-12-05 16:00:00 21.7 16 Sudoeste 28 Sudoeste 0 1003.8 -1.2 53
2019-12-05 15:00:00 21.1 11 Sudoeste 21 Sudoeste 0 1003.7 -2.2 55
2019-12-05 14:00:00 21.9 13 Sudeste 28 Sur 0 1004.1 -2 53
2019-12-05 13:00:00 22.5 14 Sur 22 Sur 0 1005 -1 47
2019-12-05 12:00:00 20.8 7 Sur 22 Sudoeste 0 1005.9 0.5 53
2019-12-05 11:00:00 21.5 15 Sudoeste 26 Sudoeste 0 1006.1 1.1 53
2019-12-05 10:00:00 20.8 13 Sudoeste 28 Noroeste 0 1006 1.5 56
2019-12-05 09:00:00 18.5 7 Oeste 17 Nordeste 0 1005.4 1.3 66
2019-12-05 08:00:00 16.8 4 Este 18 Noroeste 0 1005 0.7 73
2019-12-05 07:00:00 16.3 15 Noroeste 26 Noroeste 0 1004.5 -0.3 75
2019-12-05 06:00:00 16.2 10 Noroeste 15 Noroeste 0 1004.1 -1 76
2019-12-05 05:00:00 16.2 13 Norte 18 Norte 0 1004.3 -1.2 76
2019-12-05 04:00:00 16.5 9 Oeste 17 Oeste 0 1004.8 -1.2 70
2019-12-05 03:00:00 16.7 10 Nordeste 26 Nordeste 0 1005.1 -1.3 70
2019-12-05 02:00:00 17.7 18 Norte 30 Nordeste 0 1005.5 -2.2 66
2019-12-05 01:00:00 17.2 15 Nordeste 21 Norte 0 1006 -2.4 70
2019-12-05 00:00:00 16.2 8 Noroeste 15 Norte 0 1006.4 -1.9 72
2019-12-04 23:00:00 16.8 10 Norte 17 Norte 0 1007.7 -0.6 71
2019-12-04 22:00:00 16.7 9 Noroeste 13 Noroeste 0 1008.4 0.2 70
2019-12-04 21:00:00 17.6 10 Norte 15 Norte 0 1008.3 0.2 67
2019-12-04 20:00:00 18.1 9 Nordeste 11 Nordeste 0 1008.3 -0.2 67
2019-12-04 19:00:00 19.1 0 Calma 15 Sur 0 1008.2 0 65
2019-12-04 18:00:00 20.2 9 Sudeste 15 Sur 0 1008.1 -0.4 61
2019-12-04 17:00:00 20.9 9 Sur 18 Sur 0 1008.5 -0.6 54
2019-12-04 16:00:00 22.2 14 Sur 22 Sudoeste 0 1008.2 -2 50
2019-12-04 15:00:00 21.8 12 Sur 24 Sudoeste 0 1008.5 -2.5 50
2019-12-04 14:00:00 21.9 12 Sudeste 22 Sudeste 0 1009.1 -2.5 49
2019-12-04 13:00:00 22 15 Sudeste 26 Sudeste 0 1010.2 -1.4 49
2019-12-04 12:00:00 22.3 16 Sudeste 26 Este 0 1011 0 50
2019-12-04 11:00:00 21.9 14 Este 21 Este 0 1011.6 1.1 54
2019-12-04 10:00:00 20.8 8 Este 26 Norte 0 1011.6 1.4 52
2019-12-04 09:00:00 18.4 10 Norte 30 Norte 0 1011 1.5 54
2019-12-04 08:00:00 17.7 13 Norte 15 Norte 0 1010.5 1.1 54
2019-12-04 07:00:00 18.2 6 Norte 21 Noroeste 0 1010.2 0.4 65
2019-12-04 06:00:00 18.1 10 Oeste 15 Noroeste 0 1009.5 -0.5 64
2019-12-04 05:00:00 16.8 4 Oeste 11 Noroeste 0 1009.4 -0.7 66
2019-12-04 04:00:00 16.6 12 Noroeste 15 Noroeste 0 1009.8 -0.4 68
2019-12-04 03:00:00 15.7 9 Norte 13 Norte 0 1010 -0.8 71
2019-12-04 02:00:00 15.9 10 Norte -- -- 0 1010.1 -0.7 69
2019-12-04 01:00:00 16.6 8 Norte 11 Nordeste 0 1010.2 -0.2 67
2019-12-04 00:00:00 18.8 3 Nordeste 13 Sudoeste 0 1010.8 0.7 63
2019-12-03 23:00:00 19.3 8 Noroeste 22 Noroeste 0 1010.8 1.4 62
2019-12-03 22:00:00 19.1 5 Norte 13 Norte 0 1010.4 1.6 60
2019-12-03 21:00:00 19.5 8 Este 21 Nordeste 0 1010.1 1.6 60
2019-12-03 20:00:00 19.7 12 Este 21 Nordeste 0 1009.4 1.2 60
2019-12-03 19:00:00 20 11 Este 30 Este 0 1008.8 0.8 61
2019-12-03 18:00:00 20.3 24 Nordeste 35 Este 0 1008.5 0.7 54
2019-12-03 17:00:00 20.5 27 Nordeste 37 Este 0 1008.2 0.5 52
2019-12-03 16:00:00 20.6 28 Este 39 Este 0 1008 -0.1 58
2019-12-03 15:00:00 21.5 22 Este 30 Este 0 1007.8 -0.7 49
2019-12-03 14:00:00 21.4 17 Este 28 Este 0 1007.7 -- 48
2019-12-03 13:00:00 20.9 17 Este 30 Este 0 1008.1 -- 55
2019-12-03 12:00:00 21.7 4 Este 13 Norte 0 1008.5 -- 57
2019-12-03 11:00:00 -- -- -- -- -- -- -- -- --
2019-12-03 10:00:00 -- -- -- -- -- -- -- -- --
2019-12-03 09:00:00 -- -- -- -- -- -- -- -- --
2019-12-03 08:00:00 19.2 15 Noroeste 21 Oeste 0 1007.4 1.5 68
2019-12-03 07:00:00 18.4 6 Noroeste 21 Sur 0 1006.7 0.8 72
2019-12-03 06:00:00 18.3 7 Norte 13 Noroeste 0 1006.2 0.3 74
2019-12-03 05:00:00 18.4 7 Oeste 13 Oeste 0 1005.9 -0.1 73
2019-12-03 04:00:00 19 4 Nordeste 13 Este 0 1005.9 -0.7 69
2019-12-03 03:00:00 19.2 3 Sur 30 Noroeste 0 1005.9 -1 70
2019-12-03 02:00:00 18.4 13 Noroeste 17 Noroeste 0 1006 -1.3 69
2019-12-03 01:00:00 17.7 14 Noroeste 18 Noroeste 0 1006.6 -0.8 70
2019-12-03 00:00:00 18 16 Noroeste 21 Noroeste 0 1006.9 -0.3 66
2019-12-02 23:00:00 17.7 14 Noroeste 18 Noroeste 0 1007.3 0.7 71
2019-12-02 22:00:00 18.9 11 Nordeste 22 Nordeste 0 1007.4 1.2 68
2019-12-02 21:00:00 19.1 17 Nordeste 24 Nordeste 0 1007.2 1.3 63
2019-12-02 20:00:00 19.7 18 Nordeste 24 Nordeste 0 1006.6 0.4 64
2019-12-02 19:00:00 20.7 14 Nordeste 24 Nordeste 0 1006.2 -0.3 58
2019-12-02 18:00:00 22.4 18 Oeste 32 Oeste 0 1005.9 -0.8 50
2019-12-02 17:00:00 23.3 14 Sur 24 Sur 0 1006.2 -1.2 52
2019-12-02 16:00:00 23.1 17 Sur 26 Sur 0 1006.5 -1.6 59
2019-12-02 15:00:00 23.3 14 Sudoeste 24 Sudoeste 0 1006.7 -2.3 58
2019-12-02 14:00:00 22.2 12 Sur 26 Sudoeste 0 1007.4 -2.2 60
2019-12-02 13:00:00 23.6 22 Sudoeste 32 Sudoeste 0 1008.1 -1.9 56
2019-12-02 12:00:00 23.3 17 Sudoeste 24 Sudoeste 0 1009 -0.5 58
2019-12-02 11:00:00 22.8 14 Sur 21 Sur 0 1009.6 0.3 62
2019-12-02 10:00:00 22.1 9 Sur 18 Sur 0 1010 1.1 63
2019-12-02 09:00:00 20.6 11 Sudoeste 24 Oeste 0 1009.5 0.3 66
2019-12-02 08:00:00 17.5 12 Oeste 17 Oeste 0 1009.3 -0.3 76
2019-12-02 07:00:00 17.4 7 Oeste 11 Oeste 0 1008.9 -1 75
2019-12-02 06:00:00 16.3 8 Noroeste 15 Noroeste 0 1009.2 -1.3 76
2019-12-02 05:00:00 16.2 12 Noroeste 15 Noroeste 0 1009.6 -1.3 72
2019-12-02 04:00:00 16.8 9 Norte 15 Nordeste 0 1009.9 -1.1 71
2019-12-02 03:00:00 18.8 12 Norte 21 Norte 0 1010.5 -0.9 68
2019-12-02 02:00:00 18.4 13 Norte 22 Nordeste 0 1010.9 -0.9 65
2019-12-02 01:00:00 18.3 17 Norte 22 Norte 0 1011 -0.5 66
2019-12-02 00:00:00 17.9 14 Norte 21 Norte 0 1011.4 -0.1 67
2019-12-01 23:00:00 18.3 14 Nordeste 28 Nordeste 0 1011.8 0.3 67
2019-12-01 22:00:00 18.5 15 Nordeste 24 Norte 0 1011.5 -0.1 69
2019-12-01 21:00:00 19.4 18 Nordeste 35 Nordeste 0 1011.5 0.3 69
2019-12-01 20:00:00 19.9 29 Nordeste 41 Este 0 1011.5 0.6 71
2019-12-01 19:00:00 20.1 25 Nordeste 41 Nordeste 0 1011.6 0.7 73
2019-12-01 18:00:00 20.8 32 Nordeste 50 Este 0 1011.2 0.2 67
2019-12-01 17:00:00 22 33 Este 54 Este 0 1010.9 0 63
2019-12-01 16:00:00 22.6 35 Este 52 Nordeste 0 1010.9 -1 62
2019-12-01 15:00:00 23.3 33 Este 50 Este 0 1011 -1.7 62
2019-12-01 14:00:00 23.7 40 Este 54 Nordeste 0 1010.9 -2.3 59
2019-12-01 13:00:00 24.1 36 Este 50 Nordeste 0 1011.9 -1.2 59
2019-12-01 12:00:00 23.8 34 Nordeste 48 Este 0 1012.7 0.4 59
2019-12-01 11:00:00 23.3 32 Nordeste 52 Nordeste 0 1013.2 1.7 59
2019-12-01 10:00:00 21.6 36 Nordeste 50 Nordeste 0 1013.1 1.9 64
2019-12-01 09:00:00 20.3 31 Nordeste 54 Nordeste 0 1012.3 1.7 70
2019-12-01 08:00:00 18.9 38 Nordeste 54 Nordeste 0 1011.5 1 76
2019-12-01 07:00:00 18.8 38 Nordeste 52 Nordeste 0 1011.2 0.4 78
2019-12-01 06:00:00 18.7 38 Nordeste 52 Nordeste 0 1010.6 -0.2 80
2019-12-01 05:00:00 18.5 30 Nordeste 42 Nordeste 0 1010.5 -0.9 81
2019-12-01 04:00:00 19 32 Nordeste 54 Nordeste 0 1010.8 -0.7 80
2019-12-01 03:00:00 19.2 38 Nordeste 52 Nordeste 0 1010.8 -0.6 80
2019-12-01 02:00:00 19.3 32 Nordeste 46 Nordeste 0 1011.4 -0.2 83
2019-12-01 01:00:00 19.4 29 Nordeste 48 Nordeste 0 1011.5 -0.2 83
2019-12-01 00:00:00 19.6 36 Nordeste 48 Nordeste 0 1011.4 -0.3 83
2019-11-30 23:00:00 19.7 33 Nordeste 48 Nordeste 0 1011.6 0.2 83
2019-11-30 22:00:00 19.5 14 Nordeste 22 Nordeste 0 1011.7 0.6 81
2019-11-30 21:00:00 19.8 14 Nordeste 32 Este 0 1011.7 1 83
2019-11-30 20:00:00 20.2 20 Nordeste 41 Este 0 1011.4 1.1 83
2019-11-30 19:00:00 20.7 23 Nordeste 33 Este 0 1011.1 0.8 82
2019-11-30 18:00:00 21.7 22 Nordeste 41 Este 0 1010.7 0.6 78
2019-11-30 17:00:00 23.5 30 Nordeste 42 Este 0 1010.3 0.1 71
2019-11-30 16:00:00 24.8 29 Este 45 Este 0 1010.3 -0.4 66
2019-11-30 15:00:00 25.7 28 Este 41 Este 0 1010.1 -1.4 62
2019-11-30 14:00:00 27 30 Este 39 Este 0 1010.2 -1.3 55
2019-11-30 13:00:00 28.1 30 Nordeste 41 Este 0 1010.7 -0.6 40
2019-11-30 12:00:00 26 30 Este 42 Este 0 1011.5 1 54
2019-11-30 11:00:00 26.8 25 Este 37 Este 0 1011.5 1.5 42
2019-11-30 10:00:00 25.7 23 Este 32 Nordeste 0 1011.3 1.9 39
2019-11-30 09:00:00 24.7 21 Este 32 Nordeste 0 1010.5 1.6 27
2019-11-30 08:00:00 21.1 18 Este 32 Nordeste 0 1010 1.2 33
2019-11-30 07:00:00 22.3 23 Nordeste 37 Nordeste 0 1009.4 0.8 27
2019-11-30 06:00:00 22.5 24 Este 41 Nordeste 0 1008.9 -0.1 27
2019-11-30 05:00:00 23.2 33 Nordeste 42 Nordeste 0 1008.8 -0.3 28
2019-11-30 04:00:00 22.6 25 Nordeste 39 Nordeste 0 1008.6 -0.8 29
2019-11-30 03:00:00 21.9 24 Nordeste 39 Nordeste 0 1009 -0.4 39
2019-11-30 02:00:00 20.7 26 Nordeste 39 Nordeste 0 1009.1 -0.1 58
2019-11-30 01:00:00 19.8 23 Nordeste 42 Nordeste 0 1009.4 0.4 80
2019-11-30 00:00:00 20 18 Este 33 Nordeste 0 1009.4 0.7 81
2019-11-29 23:00:00 20.2 13 Este 22 Norte 0 1009.2 1 71
2019-11-29 22:00:00 20.4 10 Este 26 Este 0 1009 1.1 74
2019-11-29 21:00:00 20.4 22 Este 30 Este 0 1008.7 1.2 78
2019-11-29 20:00:00 20.8 20 Nordeste 26 Nordeste 0 1008.2 1.1 79
2019-11-29 19:00:00 21.4 18 Nordeste 30 Este 0 1007.9 1 79
2019-11-29 18:00:00 23.4 20 Este 33 Este 0 1007.5 0.4 71
2019-11-29 17:00:00 26.1 24 Este 32 Nordeste 0 1007.1 -0.4 57
2019-11-29 16:00:00 27.8 21 Este 35 Este 0 1006.9 -1.2 49
2019-11-29 15:00:00 28.5 23 Este 33 Nordeste 0 1007.1 -1.7 46
2019-11-29 14:00:00 28.6 23 Este 33 Este 0 1007.5 -1.2 48
2019-11-29 13:00:00 28.7 26 Este 39 Nordeste 0 1008.1 -0.3 48
2019-11-29 12:00:00 27.9 28 Nordeste 46 Este 0 1008.8 1 46
2019-11-29 11:00:00 27.4 26 Nordeste 41 Este 0 1008.7 1.2 44
2019-11-29 10:00:00 24.7 26 Nordeste 39 Nordeste 0 1008.4 1.5 47
2019-11-29 09:00:00 21.9 31 Nordeste 48 Nordeste 0 1007.8 1.1 52
2019-11-29 08:00:00 19.8 32 Nordeste 46 Nordeste 0 1007.5 1.1 62
2019-11-29 07:00:00 19.9 31 Nordeste 42 Nordeste 0 1006.9 0.1 54
2019-11-29 06:00:00 20.1 28 Nordeste 42 Nordeste 0 1006.7 0.1 50
2019-11-29 05:00:00 20.5 29 Nordeste 41 Nordeste 0 1006.4 -0.2 49
2019-11-29 04:00:00 20.4 23 Nordeste 52 Nordeste 0 1006.8 0.3 55
2019-11-29 03:00:00 19.6 36 Nordeste 50 Nordeste 0 1006.6 -0.6 70
2019-11-29 02:00:00 19.7 35 Nordeste 52 Nordeste 0 1006.6 -0.6 74
2019-11-29 01:00:00 20 36 Nordeste 52 Nordeste 0 1006.5 -0.7 64
2019-11-29 00:00:00 20 28 Nordeste 45 Nordeste 0 1007.2 0.2 69
2019-11-28 23:00:00 19.7 34 Nordeste 52 Nordeste 0 1007.2 0.3 77
2019-11-28 22:00:00 19.7 33 Nordeste 54 Nordeste 0 1007.2 0.6 80
2019-11-28 21:00:00 19.9 35 Nordeste 46 Nordeste 0 1007 0.9 79
2019-11-28 20:00:00 19.9 23 Nordeste 33 Nordeste 0 1006.9 0.7 78
2019-11-28 19:00:00 20 21 Nordeste 39 Nordeste 0 1006.6 0.4 78
2019-11-28 18:00:00 20.8 26 Este 41 Nordeste 0 1006.1 -0.3 74
2019-11-28 17:00:00 22 24 Nordeste 33 Nordeste 0 1006.2 -0.4 69
2019-11-28 16:00:00 22 20 Este 33 Este 0 1006.2 -1.5 68
2019-11-28 15:00:00 22.7 24 Este 35 Este 0 1006.4 -2.5 65
2019-11-28 14:00:00 24.5 23 Este 39 Este 0 1006.6 -2.9 57
2019-11-28 13:00:00 23.4 23 Este 32 Este 0 1007.7 -1.8 60
2019-11-28 12:00:00 23.7 19 Nordeste 32 Nordeste 0 1008.9 -0.1 57
2019-11-28 11:00:00 22.5 26 Nordeste 35 Nordeste 0 1009.5 1.1 59
2019-11-28 10:00:00 20.1 22 Nordeste 37 Nordeste 0 1009.5 1.4 68
2019-11-28 09:00:00 19.1 22 Nordeste 32 Nordeste 0 1009 1.6 74
2019-11-28 08:00:00 17.6 15 Nordeste 26 Nordeste 0 1008.4 1.2 79
2019-11-28 07:00:00 17.4 16 Norte 24 Norte 0 1008.1 0.7 78
2019-11-28 06:00:00 17.9 16 Nordeste 35 Nordeste 0 1007.4 -0.1 76
2019-11-28 05:00:00 18.2 13 Norte 21 Norte 0 1007.2 -0.6 75
2019-11-28 04:00:00 18.6 15 Norte 26 Nordeste 0 1007.4 -0.8 74
2019-11-28 03:00:00 18.6 15 Norte 24 Norte 0 1007.5 -1.1 73
2019-11-28 02:00:00 18.5 12 Norte 24 Norte 0 1007.8 -1.4 75
2019-11-28 01:00:00 18.8 15 Nordeste 30 Nordeste 0 1008.2 -0.8 75
2019-11-28 00:00:00 18.6 14 Nordeste 22 Nordeste 0 1008.6 -0.3 77
2019-11-27 23:00:00 19.2 9 Nordeste 26 Nordeste 0 1009.2 0.9 76
2019-11-27 22:00:00 19.8 20 Nordeste 30 Nordeste 0 1009 1 73
2019-11-27 21:00:00 19.8 14 Nordeste 26 Nordeste 0 1008.9 1.3 74
2019-11-27 20:00:00 19.5 18 Nordeste 30 Este 0 1008.3 0.8 75
2019-11-27 19:00:00 19.9 17 Nordeste 30 Este 0 1008 0.7 73
2019-11-27 18:00:00 20.9 21 Nordeste 37 Este 0 1007.6 0.1 69
2019-11-27 17:00:00 22.2 27 Este 37 Este 0 1007.5 -0.2 64
2019-11-27 16:00:00 23.1 28 Este 42 Este 0 1007.3 -1.2 60
2019-11-27 15:00:00 23.4 30 Este 42 Este 0 1007.5 -1.8 59
2019-11-27 14:00:00 23.4 32 Este 42 Este 0 1007.7 -2.2 59
2019-11-27 13:00:00 23.7 29 Este 42 Este 0 1008.5 -1.4 57
2019-11-27 05:00:00 17.6 13 Norte 18 Norte 0 1007.9 -0.8 73
2019-11-27 04:00:00 18.4 15 Norte 22 Norte 0 1008 -1 73
2019-11-27 03:00:00 18.5 11 Norte 24 Norte 0 1008.4 -0.8 73
2019-11-27 02:00:00 18.2 15 Norte 21 Norte 0 1008.7 -0.7 74
2019-11-27 01:00:00 19.5 13 Norte 32 Nordeste 0 1009 -0.3 73
2019-11-27 00:00:00 19.4 17 Nordeste 39 Norte 0 1009.2 0.1 73
2019-11-26 23:00:00 19.5 15 Nordeste 32 Nordeste 0 1009.4 0.6 75
2019-11-26 22:00:00 20 22 Nordeste 33 Nordeste 0 1009.3 0.8 72
2019-11-26 21:00:00 20.1 24 Nordeste 41 Este 0 1009.1 0.8 74
2019-11-26 20:00:00 20.6 26 Nordeste 35 Nordeste 0 1008.8 0.9 73
2019-11-26 19:00:00 20.5 22 Nordeste 35 Este 0 1008.5 0.5 72
2019-11-26 18:00:00 21.1 24 Este 41 Este 0 1008.3 0.2 70
2019-11-26 17:00:00 22.4 30 Este 45 Nordeste 0 1007.9 -0.6 63
2019-11-26 16:00:00 23 30 Este 42 Este 0 1008 -1.3 63
2019-11-26 15:00:00 23 29 Este 37 Este 0 1008.1 -2 63
2019-11-26 14:00:00 23.6 25 Este 35 Este 0 1008.5 -1.9 58
2019-11-26 13:00:00 23.9 27 Este 39 Este 0 1009.3 -1 57
2019-11-26 12:00:00 23.4 26 Este 41 Este 0 1010.1 0.5 57
2019-11-26 11:00:00 23.3 25 Este 33 Este 0 1010.4 1.5 57
2019-11-26 10:00:00 22.5 23 Nordeste 33 Nordeste 0 1010.3 1.5 60
2019-11-26 09:00:00 20.9 17 Nordeste 30 Este 0 1009.6 0.9 62
2019-11-26 08:00:00 18.1 19 Nordeste 26 Este 0 1008.9 0.1 73
2019-11-26 07:00:00 18.1 14 Norte 21 Nordeste 0 1008.8 0.3 72
2019-11-26 06:00:00 18.8 13 Norte 32 Nordeste 0 1008.7 0 71
2019-11-26 05:00:00 19.1 10 Noroeste 22 Norte 0 1008.8 -0.6 69
2019-11-26 04:00:00 17.9 13 Norte 21 Norte 0 1008.5 -1.1 73
2019-11-26 03:00:00 17.9 13 Norte 18 Norte 0 1008.7 -1.7 71
2019-11-26 02:00:00 18.4 13 Norte 24 Nordeste 0 1009.4 -1.2 73
2019-11-26 01:00:00 18.7 13 Nordeste 24 Nordeste 0 1009.6 -1.1 71
2019-11-26 00:00:00 19.5 12 Nordeste 17 Norte 0 1010.4 -0.1 69
2019-11-25 23:00:00 20 11 Nordeste 28 Nordeste 0 1010.6 0.5 70
2019-11-25 22:00:00 20.5 14 Nordeste 35 Nordeste 0 1010.7 0.9 69
2019-11-25 21:00:00 20.5 26 Este 39 Este 0 1010.5 0.9 70
2019-11-25 20:00:00 20.6 24 Este 37 Nordeste 0 1010.1 0.4 71
2019-11-25 19:00:00 20.7 23 Nordeste 30 Este 0 1009.8 0.1 69
2019-11-25 18:00:00 21.3 18 Este 32 Nordeste 0 1009.6 -0.1 62
2019-11-25 17:00:00 21.9 24 Nordeste 33 Nordeste 0 1009.7 -0.7 58
2019-11-25 16:00:00 21.9 21 Este 37 Este 0 1009.7 -1.3 58
2019-11-25 15:00:00 22.3 26 Este 39 Este 0 1009.7 -2.1 60
2019-11-25 14:00:00 22.5 26 Este 35 Este 0 1010.4 -1.9 58
2019-11-25 13:00:00 22.8 25 Este 37 Este 0 1011 -1.2 53
2019-11-25 12:00:00 22.8 27 Este 39 Este 0 1011.8 0.5 51
2019-11-25 11:00:00 22.8 24 Este 33 Este 0 1012.3 1.7 52
2019-11-25 10:00:00 22.1 19 Nordeste 32 Nordeste 0 1012.2 2.1 52
2019-11-25 09:00:00 20.2 10 Nordeste 21 Nordeste 0 1011.3 1.5 59
2019-11-25 08:00:00 18.2 14 Norte 30 Norte 0 1010.6 0.7 63
2019-11-25 07:00:00 17.9 16 Norte 32 Norte 0 1010.1 0 64
2019-11-25 06:00:00 17.7 16 Norte 22 Norte 0 1009.8 -0.5 64
2019-11-25 05:00:00 18.2 16 Norte 22 Norte 0 1009.9 -0.9 64
2019-11-25 04:00:00 18.5 15 Norte 30 Norte 0 1010.1 -1 62
2019-11-25 03:00:00 18.4 20 Norte 26 Norte 0 1010.3 -0.9 62
2019-11-25 02:00:00 18.6 17 Norte 41 Nordeste 0 1010.8 -0.3 63
2019-11-25 01:00:00 18.9 24 Nordeste 32 Nordeste 0 1011.1 0.1 61
2019-11-25 00:00:00 19.2 18 Nordeste 32 Nordeste 0 1011.2 0.5 64
2019-11-24 23:00:00 19.4 14 Nordeste 26 Este 0 1011.1 0.9 67
2019-11-24 22:00:00 19.7 12 Nordeste 30 Norte 0 1011 1.3 66
2019-11-24 21:00:00 20.1 23 Nordeste 32 Nordeste 0 1010.7 1.1 65
2019-11-24 20:00:00 20.1 18 Nordeste 37 Nordeste 0 1010.2 0.7 70
2019-11-24 19:00:00 20.7 33 Este 42 Nordeste 0 1009.7 0.2 70
2019-11-24 18:00:00 21.2 30 Este 45 Este 0 1009.6 0.1 70
2019-11-24 17:00:00 21.6 36 Este 48 Este 0 1009.5 -0.6 67
2019-11-24 16:00:00 22.9 35 Este 46 Este 0 1009.5 -1.3 61
2019-11-24 15:00:00 23.6 32 Este 42 Nordeste 0 1009.5 -2 61
2019-11-24 14:00:00 23.6 29 Este 41 Este 0 1010.1 -1.9 63
2019-11-24 13:00:00 24.3 28 Este 45 Este 0 1010.8 -1.3 61
2019-11-24 12:00:00 24.2 26 Este 41 Este 0 1011.5 0.2 63
2019-11-24 11:00:00 23.6 27 Este 37 Este 0 1012 1.1 64
2019-11-24 10:00:00 22.4 17 Este 32 Este 0 1012.1 2.1 73
2019-11-24 09:00:00 21.9 10 Norte 18 Nordeste 0 1011.3 1.6 63
2019-11-24 08:00:00 18.7 14 Norte 18 Norte 0 1010.9 1.2 71
2019-11-24 07:00:00 17.7 12 Norte 18 Nordeste 0 1010 0.1 79
2019-11-24 06:00:00 18.4 13 Nordeste 18 Nordeste 0 1009.7 -0.5 72
2019-11-24 05:00:00 17.4 10 Norte 13 Norte 0 1009.7 -0.7 76
2019-11-24 04:00:00 18 9 Norte 11 Norte 0 1009.9 -1.1 80
2019-11-24 03:00:00 19.6 6 Nordeste 15 Nordeste 0 1010.2 -1.3 80
2019-11-24 02:00:00 20.1 11 Nordeste 13 Nordeste 0 1010.4 -1 73
2019-11-24 01:00:00 20.3 10 Norte 18 Nordeste 0 1011 -0.2 79
2019-11-24 00:00:00 20.4 13 Norte 32 Nordeste 0 1011.5 0.5 76
2019-11-23 23:00:00 19.3 13 Nordeste 17 Nordeste 0 1011.4 0.5 80
2019-11-23 22:00:00 20 9 Nordeste 15 Nordeste 0 1011.2 1.1 87
2019-11-23 21:00:00 21 11 Este 24 Este 0.2 1011 1.3 87
2019-11-23 20:00:00 21.4 5 Sudeste 11 Este 0 1010.9 1.6 80
2019-11-23 19:00:00 21.7 6 Sudoeste 13 Sudoeste 0 1010.1 1.1 77
2019-11-23 18:00:00 22.7 10 Sudoeste 15 Sudoeste 0 1009.7 0.6 70
2019-11-23 17:00:00 23.6 11 Sudoeste 17 Sudoeste 0 1009.3 -0.5 69
2019-11-23 16:00:00 24.1 10 Sur 18 Sudoeste 0 1009 -1.3 64
2019-11-23 15:00:00 24.2 11 Sur 17 Sur 0 1009.1 -1.8 64
2019-11-23 14:00:00 23 13 Sudoeste 24 Sudoeste 0 1009.8 -1.6 71
2019-11-23 13:00:00 24 13 Sur 21 Sur 0 1010.3 -0.7 65
2019-11-23 12:00:00 24 13 Sur 24 Sur 0 1010.9 0.2 64
2019-11-23 11:00:00 23.5 10 Sudeste 17 Sudeste 0 1011.4 1.5 65
2019-11-23 10:00:00 23.3 8 Este 13 Este 0 1011 1.4 66
2019-11-23 09:00:00 22.1 0 Calma 13 Norte 0 1010.7 1.4 70
2019-11-23 08:00:00 17.9 12 Norte 17 Noroeste 0 1009.9 0.9 80
2019-11-23 07:00:00 17.1 14 Norte 22 Noroeste 0 1009.6 0.6 82
2019-11-23 06:00:00 16.9 0 Calma 9 Norte 0 1009.3 -0.2 82
2019-11-23 05:00:00 17.1 9 Norte 11 Norte 0 1009 -0.4 81
2019-11-23 04:00:00 17.4 9 Nordeste 15 Nordeste 0 1009 -0.8 79
2019-11-23 03:00:00 17.8 10 Nordeste 15 Nordeste 0 1009.5 -0.3 81
2019-11-23 02:00:00 18.3 12 Nordeste 15 Nordeste 0 1009.4 -0.3 81
2019-11-23 01:00:00 18.3 12 Norte -- -- -- 1009.8 0 81
2019-11-23 00:00:00 18.4 10 Norte 13 Norte 0 1009.8 0.4 81
2019-11-22 23:00:00 18.7 9 Nordeste 13 Nordeste 0 1009.7 1.1 79
2019-11-22 22:00:00 19.5 9 Nordeste 26 Norte 0 1009.8 1.8 81
2019-11-22 21:00:00 19.7 9 Norte -- -- 0 1009.4 1.5 78
2019-11-22 20:00:00 20 3 Norte 9 Sur 0 1008.6 0.8 73
2019-11-22 19:00:00 20.8 4 Sur 15 Sur 0 1008 0.2 74
2019-11-22 18:00:00 21.7 10 Sur 22 Sur 0 1007.9 0.2 74
2019-11-22 17:00:00 22.2 11 Sur 17 Sudoeste 0 1007.8 -0.2 75
2019-11-22 16:00:00 22.5 11 Sudoeste 21 Sur 0 1007.8 -0.5 75
2019-11-22 15:00:00 23.8 14 Sur 22 Sur 0 1007.7 -1.1 69
2019-11-22 14:00:00 23.4 12 Sur 26 Sur 0 1008 -1 72
2019-11-22 13:00:00 24.2 14 Sur 24 Sur 0 1008.3 -0.5 68
2019-11-22 12:00:00 24.2 14 Sur 21 Sur 0 1008.8 0.6 65
2019-11-22 11:00:00 24.2 10 Sur 17 Sudeste 0 1009 1.5 64
2019-11-22 10:00:00 22.9 9 Sudeste 26 Nordeste 0 1008.8 2.1 72
2019-11-22 09:00:00 20.9 10 Norte 18 Norte 0 1008.2 2.2 74
2019-11-22 08:00:00 17.7 13 Norte 30 Norte 0 1007.5 1.5 72
2019-11-22 07:00:00 16.1 11 Norte 24 Norte 0 1006.7 0.9 72
2019-11-22 06:00:00 16.2 9 Norte 13 Noroeste 0 1006 -0.1 72
2019-11-22 05:00:00 16.6 9 Norte 15 Norte 0 1006 -0.3 71
2019-11-22 04:00:00 17.1 9 Norte 15 Norte 0 1005.8 -0.9 67
2019-11-22 03:00:00 17.6 12 Nordeste 13 Nordeste 0 1006.1 -0.7 67
2019-11-22 02:00:00 17.2 9 Norte 18 Norte 0 1006.3 -0.7 68
2019-11-22 01:00:00 17.9 11 Noroeste 15 Noroeste 0 1006.7 -0.1 68
2019-11-22 00:00:00 17.5 9 Norte 18 Noroeste 0 1006.8 0.1 69
2019-11-21 23:00:00 18.1 8 Norte 11 Norte 0 1007 0.5 68
2019-11-21 22:00:00 18.8 9 Norte 26 Norte 0 1006.8 0.8 70
2019-11-21 21:00:00 18.9 4 Norte 9 Sur 0 1006.7 1.1 66
2019-11-21 20:00:00 20.5 0 Calma 30 Nordeste 0 1006.5 1 60
2019-11-21 19:00:00 21.1 9 Nordeste 26 Nordeste 0 1006 0.8 61
2019-11-21 18:00:00 22.1 12 Este 17 Este 0 1005.6 0.4 62
2019-11-21 17:00:00 22.5 10 Este 15 Este 0 1005.5 -0.6 60
2019-11-21 16:00:00 22.8 12 Este 17 Este 0 1005.2 -1.4 61
2019-11-21 15:00:00 23.4 5 Oeste 22 Nordeste 0 1005.2 -2 58
2019-11-21 14:00:00 23.2 14 Nordeste 42 Sudoeste 0 1006.1 -1.7 58
2019-11-21 13:00:00 23.6 27 Oeste 39 Sudoeste 0 1006.6 -1.4 56
2019-11-21 12:00:00 23.2 15 Oeste 28 Oeste 0 1007.2 -0.5 56
2019-11-21 11:00:00 23.7 14 Este 22 Este 0 1007.8 0.4 56
2019-11-21 10:00:00 23 5 Oeste 15 Sudoeste 0 1008 1.2 54
2019-11-21 09:00:00 20.9 2 Oeste 9 Noroeste 0 1007.7 1.3 65
2019-11-21 08:00:00 17.3 7 Noroeste 30 Norte 0 1007.4 0.7 75
2019-11-21 07:00:00 -- -- -- -- -- -- -- -- --
2019-11-21 06:00:00 -- -- -- -- -- -- -- -- --
2019-11-21 05:00:00 -- -- -- -- -- -- -- -- --
2019-11-21 04:00:00 -- -- -- -- -- -- -- -- --
2019-11-21 03:00:00 -- -- -- -- -- -- -- -- --
2019-11-21 02:00:00 -- -- -- -- -- -- -- -- --
2019-11-21 01:00:00 -- -- -- -- -- -- -- -- --
2019-11-21 00:00:00 -- -- -- -- -- -- -- -- --
2019-11-20 23:00:00 -- -- -- -- -- -- -- -- --
2019-11-20 22:00:00 -- -- -- -- -- -- -- -- --
2019-11-20 21:00:00 -- -- -- -- -- -- -- -- --
2019-11-20 20:00:00 -- -- -- -- -- -- -- -- --
2019-11-20 19:00:00 -- -- -- -- -- -- -- -- --
2019-11-20 18:00:00 22.7 20 Nordeste 26 Este 0 1006.9 0.3 64
2019-11-20 17:00:00 23.6 17 Este 41 Oeste 0 1006.2 -1.1 63
2019-11-20 16:00:00 24.8 30 Oeste 46 Oeste 0 1006.5 -1.7 57
2019-11-20 15:00:00 25 24 Sudoeste 37 Oeste 0 1006.6 -2.4 54
2019-11-20 14:00:00 24.5 25 Sudoeste 41 Oeste 0 1007.3 -2.4 54
2019-11-20 13:00:00 24.7 29 Oeste 42 Oeste 0 1008.2 -1.7 50
2019-11-20 12:00:00 23.3 24 Sudoeste 33 Sudoeste 0 1009 -0.6 61
2019-11-20 11:00:00 22.7 19 Sur 26 Sur 0 1009.7 0.5 63
2019-11-20 10:00:00 22.5 6 Sudoeste 11 Sudoeste 0 1009.9 0.9 54
2019-11-20 09:00:00 20 4 Noroeste 18 Norte 0 1009.6 0.8 60
2019-11-20 08:00:00 16.4 11 Norte 21 Norte 0 1009.2 0.4 63
2019-11-20 07:00:00 15.8 13 Norte 26 Norte 0 1009 0.1 66
2019-11-20 06:00:00 15.6 12 Norte 17 Norte 0 1008.8 -0.3 63
2019-11-20 05:00:00 15.6 13 Norte 15 Norte 0 1008.8 -0.5 69
2019-11-20 04:00:00 16 10 Norte 15 Norte 0 1008.9 -0.9 75
2019-11-20 03:00:00 16.9 12 Norte 17 Norte 0 1009.1 -1 73
2019-11-20 02:00:00 17 13 Norte 17 Norte 0 1009.3 -1 74
2019-11-20 01:00:00 16.8 10 Norte 13 Norte 0 1009.8 -0.7 72
2019-11-20 00:00:00 17.2 10 Norte 17 Norte 0 1010.1 -0.2 69
2019-11-19 23:00:00 17.6 10 Norte 13 Norte 0 1010.3 0.5 70
2019-11-19 22:00:00 18.4 10 Norte 18 Norte 0 1010.5 0.9 68
2019-11-19 21:00:00 19.1 6 Nordeste 17 Norte 0 1010.3 0.9 68
2019-11-19 20:00:00 19.7 5 Este 13 Sudeste 0 1009.8 0.5 66
2019-11-19 19:00:00 20.5 10 Este 18 Sudeste 0 1009.6 0.3 63
2019-11-19 18:00:00 22.4 9 Sudeste 21 Sudoeste 0 1009.4 -0.1 49
2019-11-19 17:00:00 23.1 14 Sur 24 Sur 0 1009.3 -0.9 47
2019-11-19 16:00:00 23.8 17 Sur 30 Sudeste 0 1009.3 -1.5 48
2019-11-19 15:00:00 24 15 Sudeste 26 Sudeste 0 1009.5 -2.2 45
2019-11-19 14:00:00 24.2 14 Sur 22 Sur 0 1010.2 -2 43
2019-11-19 13:00:00 24 14 Sur 22 Sur 0 1010.8 -1.3 44
2019-11-19 12:00:00 23.8 12 Sur 21 Sudoeste 0 1011.7 -0.2 46
2019-11-19 11:00:00 23 12 Sudoeste 18 Sudoeste 0 1012.2 0.5 52
2019-11-19 10:00:00 22.1 12 Oeste 18 Sudoeste 0 1012.1 0.6 54
2019-11-19 09:00:00 20.4 9 Oeste 13 Noroeste 0 1011.9 0.9 56
2019-11-19 08:00:00 15.4 10 Noroeste 18 Norte 0 1011.7 0.5 59
2019-11-19 07:00:00 15.3 11 Norte 32 Noroeste 0 1011.5 0.1 64
2019-11-19 06:00:00 16.4 15 Noroeste 18 Noroeste 0 1011 -0.6 59
2019-11-19 05:00:00 16 12 Noroeste 15 Noroeste 0 1011.2 -0.9 67
2019-11-19 04:00:00 16.1 13 Noroeste 17 Noroeste 0 1011.4 -1.3 69
2019-11-19 03:00:00 16.4 13 Noroeste 17 Norte 0 1011.6 -1.3 67
2019-11-19 02:00:00 17.2 13 Norte 17 Norte 0 1012.1 -0.8 66
2019-11-19 01:00:00 16.9 12 Norte 17 Norte 0 1012.7 -0.1 67
2019-11-19 00:00:00 17.8 13 Norte 17 Norte 0 1012.9 0.3 61
2019-11-18 23:00:00 17.4 13 Nordeste 17 Nordeste 0 1012.9 0.7 62
2019-11-18 22:00:00 17.7 13 Nordeste 21 Nordeste 0 1012.8 1 62
2019-11-18 21:00:00 19 16 Nordeste 24 Nordeste 0 1012.6 0.9 64
2019-11-18 20:00:00 19.4 19 Este 35 Nordeste 0 1012.2 0.5 70
2019-11-18 19:00:00 19.8 28 Este 41 Este 0 1011.8 0.5 70
2019-11-18 18:00:00 20.4 27 Nordeste 39 Nordeste 0 1011.7 0.4 64
2019-11-18 17:00:00 21.3 25 Este 42 Este 0 1011.7 0.1 65
2019-11-18 16:00:00 22.9 30 Este 45 Este 0 1011.3 -0.9 57
2019-11-18 15:00:00 23.2 33 Este 48 Este 0 1011.3 -1.5 56
2019-11-18 14:00:00 23.3 31 Este 50 Este 0 1011.6 -1.8 51
2019-11-18 13:00:00 23 33 Este 58 Este 0 1012.2 -1.2 53
2019-11-18 12:00:00 22.6 38 Este 54 Este 0 1012.8 -0.1 51
2019-11-18 11:00:00 22.5 43 Este 58 Este 0 1013.4 0.9 49
2019-11-18 10:00:00 21.8 37 Nordeste 52 Este 0 1013.4 1.6 54
2019-11-18 09:00:00 20.4 29 Nordeste 42 Nordeste 0 1012.9 1.5 57
2019-11-18 08:00:00 18.8 28 Nordeste 42 Nordeste 0 1012.5 0.9 60
2019-11-18 07:00:00 18.2 25 Nordeste 39 Nordeste 0 1011.8 0.2 58
2019-11-18 06:00:00 18.1 26 Nordeste 39 Nordeste 0 1011.4 -0.2 62
2019-11-18 05:00:00 17.6 19 Nordeste 33 Nordeste 0 1011.6 -0.4 64
2019-11-18 04:00:00 18.3 19 Nordeste 50 Nordeste 0 1011.6 -0.8 61
2019-11-18 03:00:00 18.6 35 Nordeste 46 Nordeste 0 1011.6 -1.1 62
2019-11-18 02:00:00 18.8 28 Nordeste 42 Nordeste 0 1012 -0.6 58
2019-11-18 01:00:00 18.6 23 Nordeste 45 Nordeste 0 1012.4 -0.3 55
2019-11-18 00:00:00 18.9 27 Nordeste 45 Nordeste 0 1012.7 0.4 56
2019-11-17 23:00:00 18.5 24 Nordeste 41 Nordeste 0 1012.6 0.7 53
2019-11-17 22:00:00 18.8 24 Nordeste 46 Norte 0 1012.7 1.1 57
2019-11-17 21:00:00 18.9 28 Nordeste 41 Nordeste 0 1012.3 1.1 60
2019-11-17 20:00:00 19.1 32 Nordeste 54 Nordeste 0 1011.9 0.7 63
2019-11-17 19:00:00 19.3 26 Nordeste 42 Nordeste 0 1011.6 0.5 64
2019-11-17 18:00:00 20.1 33 Nordeste 46 Este 0 1011.2 0.1 55
2019-11-17 17:00:00 20.6 34 Nordeste 52 Nordeste 0 1011.2 -0.4 55
2019-11-17 16:00:00 20.8 39 Nordeste 54 Nordeste 0 1011.1 -1.1 54
2019-11-17 15:00:00 21.1 37 Nordeste 58 Nordeste 0 1011.1 -2.3 58
2019-11-17 14:00:00 21.8 37 Nordeste 61 Este 0 1011.6 -2.1 50
2019-11-17 13:00:00 22.7 41 Este 58 Este 0 1012.2 -1.5 45
2019-11-17 12:00:00 20.4 37 Nordeste 54 Este 0 1013.4 0 58
2019-11-17 11:00:00 21 39 Nordeste 50 Nordeste 0 1013.7 0.8 53
2019-11-17 10:00:00 20.3 32 Nordeste 52 Nordeste 0 1013.7 1.3 60
2019-11-17 09:00:00 18.7 24 Nordeste 42 Nordeste 0 1013.4 1.5 71
2019-11-17 08:00:00 17.5 21 Nordeste 37 Este 0 1012.9 1.1 72
2019-11-17 07:00:00 17.7 16 Nordeste 46 Nordeste 0 1012.4 0.7 67
2019-11-17 06:00:00 17.6 24 Nordeste 37 Nordeste 0 1011.9 -0.2 69
2019-11-17 05:00:00 17.6 22 Nordeste 35 Nordeste 0 1011.8 0.2 67
2019-11-17 04:00:00 17.9 19 Nordeste 37 Nordeste 0 1011.7 -0.2 67
2019-11-17 03:00:00 17.7 29 Nordeste 46 Este 0 1012.1 0.3 75
2019-11-17 02:00:00 18.8 24 Nordeste 41 Nordeste 0 1011.6 0 67
2019-11-17 01:00:00 18.5 20 Nordeste 30 Norte 0 1011.9 0.6 60
2019-11-17 00:00:00 18.6 22 Nordeste 46 Nordeste 0 1011.8 0.6 62
2019-11-16 23:00:00 19.1 25 Nordeste 45 Nordeste 0 1011.6 0.8 64
2019-11-16 22:00:00 19.3 27 Nordeste 46 Nordeste 0 1011.3 1 53
2019-11-16 21:00:00 19.4 23 Nordeste 42 Nordeste 0 1011.2 1.6 62
2019-11-16 20:00:00 19.3 20 Nordeste 52 Nordeste 0 1010.8 1.5 63
2019-11-16 19:00:00 19.7 36 Nordeste 59 Nordeste 0 1010.3 1.1 59
2019-11-16 18:00:00 20.4 37 Nordeste 61 Este 0 1009.6 0.7 55
2019-11-16 17:00:00 21.8 40 Este 65 Este 0 1009.3 -0.1 53
2019-11-16 16:00:00 22.1 49 Nordeste 72 Nordeste 0 1009.2 -0.9 51
2019-11-16 15:00:00 22.7 47 Este 68 Este 0 1008.9 -1.9 53
2019-11-16 14:00:00 23 45 Este 67 Este 0 1009.4 -1.9 50
2019-11-16 13:00:00 23.6 40 Este 71 Este 0 1010.1 -1.3 43
2019-11-16 12:00:00 23.4 44 Este 72 Nordeste 0 1010.8 0.1 42
2019-11-16 11:00:00 22.9 44 Nordeste 63 Nordeste 0 1011.3 1.1 41
2019-11-16 10:00:00 21.9 23 Nordeste 39 Este 0 1011.4 1.5 47
2019-11-16 09:00:00 20 21 Nordeste 30 Nordeste 0 1010.7 1.3 54
2019-11-16 08:00:00 19 14 Nordeste 33 Este 0 1010.2 1.1 61
2019-11-16 07:00:00 17.6 20 Nordeste 30 Nordeste 0 1009.9 0.9 67
2019-11-16 06:00:00 17.5 20 Nordeste 28 Nordeste 0 1009.4 0 62
2019-11-16 05:00:00 17.4 12 Norte 45 Este 0 1009.1 -0.4 62
2019-11-16 04:00:00 16.9 14 Norte 32 Nordeste 0 1009 -0.3 67
2019-11-16 03:00:00 18 27 Nordeste 41 Nordeste 0 1009.4 -0.4 67
2019-11-16 02:00:00 17.4 31 Nordeste 55 Nordeste 0 1009.5 -0.4 76
2019-11-16 01:00:00 17.9 19 Nordeste 37 Este 0 1009.3 0 67
2019-11-16 00:00:00 17.5 14 Nordeste 45 Nordeste 0 1009.8 0.9 67
2019-11-15 23:00:00 18.6 36 Nordeste 52 Nordeste 0 1009.9 1.7 67
2019-11-15 22:00:00 18.9 27 Nordeste 46 Nordeste 0 1009.3 1.6 56
2019-11-15 21:00:00 19 28 Nordeste 42 Nordeste 0 1008.9 1.6 61
2019-11-15 20:00:00 19.2 33 Nordeste 54 Este 0 1008.2 1.1 59
2019-11-15 19:00:00 19.6 35 Nordeste 59 Nordeste 0 1007.7 0.6 56
2019-11-15 18:00:00 20.1 40 Nordeste 61 Este 0 1007.3 -0.1 57
2019-11-15 17:00:00 20.9 42 Este 63 Este 0 1007.1 -0.6 53
2019-11-15 16:00:00 21 38 Este 65 Este 0 1007.1 -1.3 57
2019-11-15 15:00:00 20.8 40 Este 59 Este 0 1007.4 -1.7 63
2019-11-15 14:00:00 22.3 44 Este 63 Este 0 1007.7 -1.8 60
2019-11-15 13:00:00 21.6 33 Este 63 Este 0 1008.4 -1 60
2019-11-15 12:00:00 21.8 35 Este 52 Nordeste 0 1009.1 0.3 63
2019-11-15 11:00:00 22.3 32 Este 46 Este 0 1009.5 1.3 59
2019-11-15 10:00:00 22.3 33 Nordeste 45 Este 0 1009.4 1.5 60
2019-11-15 09:00:00 21.6 10 Este 17 Este 0 1008.8 1.5 56
2019-11-15 08:00:00 18.7 11 Nordeste 22 Nordeste 0 1008.2 0.7 64
2019-11-15 07:00:00 18.5 14 Nordeste 26 Norte 0 1007.9 0.5 68
2019-11-15 06:00:00 19.8 2 Este 32 Este 0 1007.3 -0.8 53
2019-11-15 05:00:00 19.9 23 Nordeste 45 Nordeste 0 1007.5 -0.7 59
2019-11-15 04:00:00 19.4 19 Nordeste 45 Nordeste 0 1007.4 -1.2 56
2019-11-15 03:00:00 19.8 30 Nordeste 50 Nordeste 0 1008.1 -0.5 60
2019-11-15 02:00:00 20.1 31 Nordeste 48 Nordeste 0 1008.2 0.1 61
2019-11-15 01:00:00 19.9 26 Nordeste 48 Nordeste 0 1008.6 0 62
2019-11-15 00:00:00 20.1 32 Nordeste 55 Nordeste 0 1008.6 0.2 66